createdAt,value
2022-10-13T00:00:35.365Z,79.86
2022-10-13T00:03:03.214Z,80.08
2022-10-13T00:05:30.979Z,80.24
2022-10-13T00:07:57.727Z,79.95
2022-10-13T00:10:25.105Z,79.85
2022-10-13T00:12:52.006Z,79.76
2022-10-13T00:15:22.104Z,80.09
2022-10-13T00:17:48.762Z,80.29
2022-10-13T00:20:15.404Z,80.15
2022-10-13T00:22:42.178Z,80.04
2022-10-13T00:25:09.179Z,79.77
2022-10-13T00:27:35.818Z,79.71
2022-10-13T00:30:02.573Z,79.76
2022-10-13T00:32:29.673Z,79.67
2022-10-13T00:34:57.812Z,79.23
2022-10-13T00:37:25.227Z,79.30
2022-10-13T00:39:52.047Z,79.29
2022-10-13T00:42:23.435Z,79.59
2022-10-13T00:45:01.672Z,79.75
2022-10-13T00:47:36.633Z,79.92
2022-10-13T00:50:04.891Z,79.68
2022-10-13T00:52:32.340Z,79.63
2022-10-13T00:54:59.615Z,79.44
2022-10-13T00:57:26.395Z,79.27
2022-10-13T00:59:53.109Z,78.86
2022-10-13T01:02:20.446Z,78.91
2022-10-13T01:04:50.346Z,79.22
2022-10-13T01:07:19.098Z,79.40
2022-10-13T01:09:45.825Z,79.72
2022-10-13T01:12:33.496Z,79.91
2022-10-13T01:15:15.007Z,79.82
2022-10-13T01:18:04.033Z,79.86
2022-10-13T01:20:41.711Z,79.88
2022-10-13T01:23:17.947Z,79.91
2022-10-13T01:26:14.716Z,79.89
2022-10-13T01:29:14.985Z,79.95
2022-10-13T01:31:47.892Z,79.74
2022-10-13T01:34:20.916Z,79.34
2022-10-13T01:36:56.726Z,79.48
2022-10-13T01:39:38.088Z,79.33
2022-10-13T01:42:13.239Z,79.28
2022-10-13T01:44:47.208Z,79.22
2022-10-13T01:47:16.095Z,79.12
2022-10-13T01:49:44.622Z,79.39
2022-10-13T01:52:15.241Z,79.41
2022-10-13T01:54:42.001Z,79.32
2022-10-13T01:57:30.664Z,79.25
2022-10-13T01:59:59.188Z,79.29
2022-10-13T02:02:33.320Z,79.17
2022-10-13T02:05:17.967Z,79.12
2022-10-13T02:08:13.657Z,79.04
2022-10-13T02:10:48.228Z,79.06
2022-10-13T02:13:16.180Z,79.06
2022-10-13T02:15:46.353Z,79.20
2022-10-13T02:18:15.299Z,79.23
2022-10-13T02:20:42.590Z,79.33
2022-10-13T02:23:14.323Z,79.25
2022-10-13T02:25:41.797Z,79.19
2022-10-13T02:28:08.924Z,79.35
2022-10-13T02:30:42.559Z,79.30
2022-10-13T02:33:09.771Z,79.34
2022-10-13T02:35:37.843Z,79.44
2022-10-13T02:38:05.218Z,79.57
2022-10-13T02:40:31.995Z,79.23
2022-10-13T02:42:58.619Z,79.12
2022-10-13T02:45:25.476Z,79.27
2022-10-13T02:47:54.921Z,79.29
2022-10-13T02:50:21.644Z,79.51
2022-10-13T02:52:50.401Z,79.50
2022-10-13T02:55:17.063Z,79.41
2022-10-13T02:57:45.676Z,79.36
2022-10-13T03:00:13.101Z,79.28
2022-10-13T03:02:39.743Z,79.05
2022-10-13T03:05:06.591Z,78.94
2022-10-13T03:07:33.209Z,78.83
2022-10-13T03:09:59.842Z,78.81
2022-10-13T03:12:26.446Z,79.11
2022-10-13T03:14:53.071Z,79.21
2022-10-13T03:17:19.814Z,79.29
2022-10-13T03:19:46.444Z,79.37
2022-10-13T03:22:17.276Z,79.32
2022-10-13T03:24:44.225Z,79.22
2022-10-13T03:27:11.223Z,79.43
2022-10-13T03:29:38.226Z,79.64
2022-10-13T03:32:05.207Z,79.63
2022-10-13T03:34:31.928Z,79.34
2022-10-13T03:37:04.129Z,79.24
2022-10-13T03:39:34.541Z,79.18
2022-10-13T03:42:01.208Z,79.09
2022-10-13T03:44:28.133Z,79.05
2022-10-13T03:46:54.801Z,78.86
2022-10-13T03:49:21.600Z,78.85
2022-10-13T03:51:48.304Z,78.71
2022-10-13T03:54:15.238Z,78.72
2022-10-13T03:56:44.841Z,78.67
2022-10-13T03:59:13.403Z,78.57
2022-10-13T04:01:40.479Z,78.99
2022-10-13T04:04:07.986Z,79.03
2022-10-13T04:06:34.603Z,79.08
2022-10-13T04:09:01.230Z,79.39
2022-10-13T04:11:27.862Z,79.27
2022-10-13T04:13:56.937Z,79.29
2022-10-13T04:16:25.700Z,79.20
2022-10-13T04:18:56.139Z,79.03
2022-10-13T04:21:23.791Z,79.48
2022-10-13T04:23:50.712Z,79.41
2022-10-13T04:26:20.443Z,79.36
2022-10-13T04:28:48.344Z,79.27
2022-10-13T04:31:15.268Z,78.93
2022-10-13T04:33:42.133Z,79.11
2022-10-13T04:36:10.873Z,79.46
2022-10-13T04:38:37.804Z,79.54
2022-10-13T04:41:05.725Z,79.41
2022-10-13T04:43:33.340Z,79.37
2022-10-13T04:46:14.655Z,79.42
2022-10-13T04:48:41.663Z,79.35
2022-10-13T04:51:10.656Z,79.52
2022-10-13T04:53:37.810Z,79.51
2022-10-13T04:56:13.048Z,79.63
2022-10-13T04:58:39.703Z,79.65
2022-10-13T05:01:07.971Z,79.93
2022-10-13T05:03:34.913Z,80.11
2022-10-13T05:06:02.102Z,80.16
2022-10-13T05:08:28.920Z,80.05
2022-10-13T05:11:01.131Z,80.28
2022-10-13T05:13:29.682Z,80.25
2022-10-13T05:15:58.013Z,79.93
2022-10-13T05:18:24.879Z,79.95
2022-10-13T05:20:51.611Z,79.87
2022-10-13T05:23:18.873Z,80.00
2022-10-13T05:25:45.540Z,79.97
2022-10-13T05:28:14.639Z,79.79
2022-10-13T05:30:41.331Z,79.92
2022-10-13T05:33:08.133Z,79.60
2022-10-13T05:35:34.743Z,79.51
2022-10-13T05:38:01.370Z,79.55
2022-10-13T05:40:30.891Z,79.19
2022-10-13T05:43:00.524Z,79.33
2022-10-13T05:45:28.236Z,79.29
2022-10-13T05:47:54.961Z,79.77
2022-10-13T05:50:21.556Z,79.72
2022-10-13T05:52:48.202Z,79.25
2022-10-13T05:55:15.984Z,79.36
2022-10-13T05:57:48.900Z,79.68
2022-10-13T06:00:17.612Z,79.56
2022-10-13T06:02:54.487Z,79.66
2022-10-13T06:05:22.302Z,80.11
2022-10-13T06:07:52.757Z,79.96
2022-10-13T06:10:19.558Z,80.14
2022-10-13T06:12:46.177Z,79.94
2022-10-13T06:15:13.032Z,79.85
2022-10-13T06:17:40.088Z,79.73
2022-10-13T06:20:07.604Z,79.72
2022-10-13T06:22:35.872Z,79.87
2022-10-13T06:25:03.510Z,79.74
2022-10-13T06:27:31.271Z,79.80
2022-10-13T06:29:59.158Z,79.76
2022-10-13T06:32:25.854Z,79.42
2022-10-13T06:34:52.496Z,79.43
2022-10-13T06:37:21.198Z,79.32
2022-10-13T06:39:51.620Z,78.85
2022-10-13T06:42:18.850Z,78.52
2022-10-13T06:44:46.429Z,78.37
2022-10-13T06:47:13.039Z,78.41
2022-10-13T06:49:39.694Z,78.69
2022-10-13T06:52:06.376Z,78.96
2022-10-13T06:54:32.987Z,79.01
2022-10-13T06:56:59.813Z,78.82
2022-10-13T06:59:27.819Z,79.24
2022-10-13T07:01:54.688Z,79.04
2022-10-13T07:04:21.422Z,78.67
2022-10-13T07:06:48.107Z,78.08
2022-10-13T07:09:14.770Z,77.32
2022-10-13T07:11:44.321Z,76.82
2022-10-13T07:14:11.037Z,76.45
2022-10-13T07:16:37.620Z,76.70
2022-10-13T07:19:04.799Z,76.79
2022-10-13T07:21:31.540Z,76.75
2022-10-13T07:23:58.240Z,76.65
2022-10-13T07:26:24.882Z,77.09
2022-10-13T07:28:51.646Z,77.04
2022-10-13T07:31:20.234Z,76.53
2022-10-13T07:33:48.732Z,76.49
2022-10-13T07:36:17.051Z,76.86
2022-10-13T07:38:43.717Z,77.33
2022-10-13T07:41:11.613Z,77.33
2022-10-13T07:43:38.787Z,76.97
2022-10-13T07:46:06.940Z,77.32
2022-10-13T07:48:34.824Z,77.23
2022-10-13T07:51:10.668Z,77.29
2022-10-13T07:53:37.507Z,76.77
2022-10-13T07:56:06.185Z,76.44
2022-10-13T07:58:33.621Z,76.52
2022-10-13T08:01:01.907Z,76.63
2022-10-13T08:03:30.299Z,76.67
2022-10-13T08:05:59.355Z,76.42
2022-10-13T08:08:26.153Z,76.54
2022-10-13T08:13:23.397Z,76.54
2022-10-13T08:15:50.119Z,75.86
2022-10-13T08:18:16.775Z,75.53
2022-10-13T08:20:45.177Z,75.24
2022-10-13T08:23:13.073Z,75.77
2022-10-13T08:25:48.286Z,75.51
2022-10-13T08:28:20.820Z,75.52
2022-10-13T08:30:47.483Z,75.66
2022-10-13T08:33:14.496Z,76.51
2022-10-13T08:35:42.612Z,76.17
2022-10-13T08:38:09.549Z,76.12
2022-10-13T08:40:37.782Z,76.14
2022-10-13T08:43:08.881Z,76.11
2022-10-13T08:45:41.224Z,75.66
2022-10-13T08:48:27.261Z,75.16
2022-10-13T08:50:58.440Z,74.65
2022-10-13T08:53:31.926Z,73.90
2022-10-13T08:56:02.516Z,74.31
2022-10-13T08:58:32.767Z,72.95
2022-10-13T09:01:02.333Z,72.77
2022-10-13T09:03:29.952Z,72.43
2022-10-13T09:05:58.811Z,72.19
2022-10-13T09:08:27.139Z,72.10
2022-10-13T09:10:54.090Z,71.95
2022-10-13T09:13:22.288Z,71.18
2022-10-13T09:15:52.729Z,71.05
2022-10-13T09:18:28.660Z,71.37
2022-10-13T09:21:09.958Z,70.90
2022-10-13T09:23:39.573Z,70.32
2022-10-13T09:26:09.845Z,70.55
2022-10-13T09:28:38.554Z,70.34
2022-10-13T09:31:10.263Z,70.38
2022-10-13T09:33:40.120Z,70.17
2022-10-13T09:36:11.241Z,69.91
2022-10-13T09:38:39.336Z,69.35
2022-10-13T09:41:09.030Z,68.18
2022-10-13T09:43:41.979Z,68.86
2022-10-13T09:46:43.734Z,69.94
2022-10-13T09:49:28.500Z,69.25
2022-10-13T09:52:20.621Z,69.44
2022-10-13T09:54:59.296Z,69.56
2022-10-13T09:57:34.952Z,69.40
2022-10-13T10:00:23.217Z,69.96
2022-10-13T10:02:52.640Z,69.58
2022-10-13T10:05:19.259Z,69.45
2022-10-13T10:07:48.696Z,69.01
2022-10-13T10:10:33.247Z,69.26
2022-10-13T10:13:02.894Z,69.83
2022-10-13T10:15:52.681Z,69.40
2022-10-13T10:18:26.066Z,69.58
2022-10-13T10:21:08.003Z,69.91
2022-10-13T10:23:46.657Z,70.10
2022-10-13T10:26:23.204Z,70.06
2022-10-13T10:28:59.100Z,69.43
2022-10-13T10:31:33.444Z,70.00
2022-10-13T10:34:03.141Z,70.42
2022-10-13T10:36:38.728Z,70.38
2022-10-13T10:39:27.051Z,69.74
2022-10-13T10:42:41.525Z,70.07
2022-10-13T10:45:30.029Z,70.49
2022-10-13T10:48:04.664Z,69.97
2022-10-13T10:50:33.345Z,69.58
2022-10-13T10:53:27.604Z,69.70
2022-10-13T10:56:00.982Z,69.72
2022-10-13T10:58:59.375Z,69.54
2022-10-13T11:01:32.091Z,69.72
2022-10-13T11:04:21.842Z,69.26
2022-10-13T11:06:52.880Z,69.04
2022-10-13T11:09:40.868Z,68.98
2022-10-13T11:12:19.941Z,68.99
2022-10-13T11:15:08.239Z,68.53
2022-10-13T11:17:39.680Z,68.36
2022-10-13T11:20:21.570Z,68.45
2022-10-13T11:23:17.226Z,68.44
2022-10-13T11:25:47.802Z,68.58
2022-10-13T11:28:23.676Z,68.65
2022-10-13T11:30:51.602Z,68.32
2022-10-13T11:33:37.074Z,68.08
2022-10-13T11:36:31.794Z,67.53
2022-10-13T11:39:16.983Z,67.46
2022-10-13T11:41:58.897Z,67.29
2022-10-13T11:44:41.096Z,67.46
2022-10-13T11:47:17.064Z,67.25
2022-10-13T11:49:52.702Z,67.60
2022-10-13T11:52:36.368Z,67.35
2022-10-13T11:55:11.066Z,67.24
2022-10-13T11:57:37.692Z,67.26
2022-10-13T12:00:04.800Z,66.69
2022-10-13T12:02:51.621Z,66.76
2022-10-13T12:05:25.357Z,67.84
2022-10-13T12:07:53.688Z,67.68
2022-10-13T12:10:32.059Z,67.38
2022-10-13T12:13:00.376Z,66.69
2022-10-13T12:15:43.769Z,66.82
2022-10-13T12:18:27.042Z,66.44
2022-10-13T12:20:58.596Z,66.84
2022-10-13T12:23:26.442Z,66.76
2022-10-13T12:25:58.236Z,66.48
2022-10-13T12:28:28.268Z,67.05
2022-10-13T12:30:57.605Z,66.82
2022-10-13T12:33:32.967Z,66.84
2022-10-13T12:36:23.089Z,66.65
2022-10-13T12:38:53.097Z,66.93
2022-10-13T12:41:27.117Z,66.87
2022-10-13T12:43:54.442Z,66.89
2022-10-13T12:46:43.221Z,67.50
2022-10-13T12:51:50.476Z,67.26
2022-10-13T12:54:20.528Z,67.01
2022-10-13T12:56:47.369Z,67.05
2022-10-13T12:59:17.295Z,66.93
2022-10-13T13:01:59.217Z,65.75
2022-10-13T13:04:46.551Z,66.39
2022-10-13T13:07:32.947Z,65.90
2022-10-13T13:10:08.447Z,65.88
2022-10-13T13:12:36.386Z,65.56
2022-10-13T13:15:34.410Z,65.67
2022-10-13T13:18:29.191Z,65.37
2022-10-13T13:20:56.400Z,64.95
2022-10-13T13:23:23.846Z,65.06
2022-10-13T13:26:20.817Z,65.04
2022-10-13T13:28:50.057Z,64.97
2022-10-13T13:31:40.210Z,65.29
2022-10-13T13:34:13.653Z,65.42
2022-10-13T13:36:46.209Z,66.15
2022-10-13T13:39:18.783Z,66.44
2022-10-13T13:41:45.551Z,66.45
2022-10-13T13:44:12.327Z,66.84
2022-10-13T13:46:39.388Z,66.86
2022-10-13T13:49:08.828Z,66.86
2022-10-13T13:51:35.576Z,66.87
2022-10-13T13:54:02.428Z,66.78
2022-10-13T13:56:29.248Z,66.89
2022-10-13T13:58:56.002Z,67.05
2022-10-13T14:01:23.719Z,67.06
2022-10-13T14:03:51.651Z,67.41
2022-10-13T14:06:25.525Z,67.45
2022-10-13T14:08:52.496Z,67.70
2022-10-13T14:11:19.392Z,67.63
2022-10-13T14:13:46.480Z,67.50
2022-10-13T14:16:24.229Z,67.33
2022-10-13T14:18:54.010Z,67.38
2022-10-13T14:21:25.760Z,66.61
2022-10-13T14:23:56.851Z,66.56
2022-10-13T14:26:23.915Z,66.96
2022-10-13T14:28:50.644Z,67.18
2022-10-13T14:31:17.409Z,67.51
2022-10-13T14:33:48.748Z,67.51
2022-10-13T14:36:18.755Z,67.66
2022-10-13T14:38:45.457Z,67.82
2022-10-13T14:41:12.144Z,67.83
2022-10-13T14:43:38.786Z,67.92
2022-10-13T14:46:06.295Z,68.82
2022-10-13T14:48:34.172Z,69.17
2022-10-13T14:51:10.571Z,68.74
2022-10-13T14:53:42.254Z,69.33
2022-10-13T14:56:26.558Z,69.87
2022-10-13T14:58:59.842Z,69.54
2022-10-13T15:01:33.760Z,70.13
2022-10-13T15:04:01.358Z,69.29
2022-10-13T15:06:29.497Z,69.93
2022-10-13T15:08:56.367Z,71.34
2022-10-13T15:11:24.434Z,73.78
2022-10-13T15:13:51.562Z,76.42
2022-10-13T15:16:23.634Z,77.32
2022-10-13T15:18:50.856Z,78.02
2022-10-13T15:21:18.120Z,78.82
2022-10-13T15:23:45.163Z,79.21
2022-10-13T15:26:13.188Z,79.48
2022-10-13T15:28:42.140Z,79.93
2022-10-13T15:31:10.082Z,80.36
2022-10-13T15:33:39.556Z,80.65
2022-10-13T15:36:06.395Z,80.94
2022-10-13T15:38:33.057Z,80.82
2022-10-13T15:41:01.026Z,80.90
2022-10-13T15:43:28.047Z,81.00
2022-10-13T15:45:57.281Z,81.03
2022-10-13T15:48:24.170Z,80.97
2022-10-13T15:50:50.770Z,81.09
2022-10-13T15:53:17.787Z,81.21
2022-10-13T15:55:44.464Z,81.51
2022-10-13T15:58:13.670Z,81.16
2022-10-13T16:00:41.475Z,81.57
2022-10-13T16:03:10.825Z,81.36
2022-10-13T16:05:40.578Z,81.59
2022-10-13T16:08:07.214Z,81.59
2022-10-13T16:10:33.898Z,81.58
2022-10-13T16:13:00.635Z,80.84
2022-10-13T16:15:29.197Z,80.62
2022-10-13T16:17:55.827Z,80.72
2022-10-13T16:20:22.526Z,80.80
2022-10-13T16:22:49.172Z,80.75
2022-10-13T16:25:15.987Z,80.69
2022-10-13T16:27:44.503Z,80.73
2022-10-13T16:30:11.881Z,80.85
2022-10-13T16:32:39.760Z,80.84
2022-10-13T16:35:07.253Z,81.01
2022-10-13T16:37:34.574Z,81.00
2022-10-13T16:40:01.244Z,81.39
2022-10-13T16:42:28.135Z,81.34
2022-10-13T16:44:54.742Z,81.29
2022-10-13T16:47:21.593Z,81.22
2022-10-13T16:49:48.550Z,81.28
2022-10-13T16:52:16.395Z,81.23
2022-10-13T16:54:43.742Z,81.16
2022-10-13T16:57:10.735Z,81.23
2022-10-13T16:59:37.510Z,81.29
2022-10-13T17:02:04.341Z,81.27
2022-10-13T17:04:31.368Z,81.38
2022-10-13T17:06:58.471Z,81.79
2022-10-13T17:09:25.132Z,81.87
2022-10-13T17:11:51.834Z,81.84
2022-10-13T17:14:18.540Z,81.91
2022-10-13T17:16:47.956Z,81.80
2022-10-13T17:19:14.583Z,82.13
2022-10-13T17:21:41.276Z,81.99
2022-10-13T17:24:08.640Z,82.01
2022-10-13T17:26:35.371Z,82.01
2022-10-13T17:29:02.190Z,82.17
2022-10-13T17:31:29.039Z,82.03
2022-10-13T17:33:55.716Z,82.00
2022-10-13T17:36:28.131Z,82.06
2022-10-13T17:38:56.741Z,81.94
2022-10-13T17:41:23.967Z,82.04
2022-10-13T17:43:51.828Z,81.94
2022-10-13T17:46:41.595Z,81.90
2022-10-13T17:49:11.163Z,82.04
2022-10-13T17:51:38.463Z,82.16
2022-10-13T17:54:14.445Z,82.19
2022-10-13T17:56:42.563Z,81.98
2022-10-13T17:59:09.960Z,82.18
2022-10-13T18:01:36.893Z,82.32
2022-10-13T18:04:09.311Z,82.27
2022-10-13T18:06:40.532Z,82.24
2022-10-13T18:09:09.411Z,82.31
2022-10-13T18:11:36.589Z,82.55
2022-10-13T18:14:03.537Z,82.64
2022-10-13T18:16:30.636Z,82.25
2022-10-13T18:18:57.285Z,82.40
2022-10-13T18:21:27.559Z,82.40
2022-10-13T18:23:55.815Z,82.61
2022-10-13T18:26:22.900Z,82.52
2022-10-13T18:28:50.438Z,82.69
2022-10-13T18:31:28.270Z,82.89
2022-10-13T18:33:57.967Z,82.46
2022-10-13T18:36:35.603Z,82.63
2022-10-13T18:39:12.173Z,82.38
2022-10-13T18:41:39.663Z,82.55
2022-10-13T18:44:06.987Z,82.61
2022-10-13T18:46:34.906Z,82.68
2022-10-13T18:49:02.815Z,82.66
2022-10-13T18:51:35.615Z,82.65
2022-10-13T18:54:03.011Z,82.77
2022-10-13T18:56:30.418Z,82.83
2022-10-13T18:58:59.971Z,82.42
2022-10-13T19:01:28.882Z,82.19
2022-10-13T19:03:56.111Z,82.40
2022-10-13T19:06:27.223Z,82.59
2022-10-13T19:08:56.447Z,82.40
2022-10-13T19:11:23.751Z,82.40
2022-10-13T19:13:51.169Z,82.23
2022-10-13T19:16:20.432Z,82.49
2022-10-13T19:18:47.519Z,82.46
2022-10-13T19:21:14.643Z,82.43
2022-10-13T19:23:41.433Z,82.58
2022-10-13T19:26:24.873Z,82.64
2022-10-13T19:28:56.201Z,82.73
2022-10-13T19:31:24.995Z,82.84
2022-10-13T19:33:52.748Z,83.07
2022-10-13T19:36:30.324Z,82.94
2022-10-13T19:39:01.051Z,82.63
2022-10-13T19:41:29.407Z,82.56
2022-10-13T19:43:56.154Z,82.51
2022-10-13T19:46:24.199Z,82.75
2022-10-13T19:48:51.271Z,82.59
2022-10-13T19:51:18.316Z,82.88
2022-10-13T19:53:45.091Z,83.07
2022-10-13T19:56:26.618Z,83.04
2022-10-13T19:58:54.065Z,83.01
2022-10-13T20:01:22.294Z,83.16
2022-10-13T20:03:49.167Z,83.27
2022-10-13T20:06:16.652Z,83.24
2022-10-13T20:08:44.975Z,83.09
2022-10-13T20:11:15.731Z,83.12
2022-10-13T20:13:45.528Z,83.21
2022-10-13T20:16:15.656Z,83.05
2022-10-13T20:18:42.591Z,83.33
2022-10-13T20:21:11.651Z,83.22
2022-10-13T20:23:40.635Z,83.09
2022-10-13T20:26:09.446Z,83.07
2022-10-13T20:28:42.744Z,82.70
2022-10-13T20:31:12.876Z,82.56
2022-10-13T20:33:40.463Z,82.37
2022-10-13T20:36:10.564Z,82.41
2022-10-13T20:38:37.317Z,82.23
2022-10-13T20:41:11.353Z,82.19
2022-10-13T20:43:38.012Z,82.22
2022-10-13T20:46:06.545Z,82.48
2022-10-13T20:48:57.736Z,82.61
2022-10-13T20:51:23.098Z,82.59
2022-10-13T20:53:49.804Z,82.27
2022-10-13T20:56:19.514Z,82.58
2022-10-13T20:58:47.018Z,82.52
2022-10-13T21:01:14.174Z,82.43
2022-10-13T21:03:40.851Z,82.26
2022-10-13T21:06:10.576Z,82.56
2022-10-13T21:08:37.395Z,82.66
2022-10-13T21:11:05.736Z,82.43
2022-10-13T21:13:32.812Z,82.53
2022-10-13T21:16:12.767Z,82.57
2022-10-13T21:18:39.478Z,82.37
2022-10-13T21:21:10.542Z,82.48
2022-10-13T21:23:39.376Z,82.41
2022-10-13T21:26:08.578Z,82.30
2022-10-13T21:28:39.095Z,82.24
2022-10-13T21:31:08.294Z,82.20
2022-10-13T21:33:36.909Z,82.14
2022-10-13T21:36:08.432Z,82.29
2022-10-13T21:38:35.167Z,82.61
2022-10-13T21:41:04.826Z,82.67
2022-10-13T21:43:31.538Z,82.61
2022-10-13T21:45:58.135Z,82.67
2022-10-13T21:48:25.212Z,82.50
2022-10-13T21:50:51.825Z,82.62
2022-10-13T21:53:18.575Z,82.94
2022-10-13T21:55:45.217Z,82.54
2022-10-13T21:58:11.939Z,82.30
2022-10-13T22:00:38.910Z,82.26
2022-10-13T22:03:05.606Z,82.31
2022-10-13T22:05:32.276Z,82.43
2022-10-13T22:07:58.886Z,82.83
2022-10-13T22:10:25.582Z,82.62
2022-10-13T22:12:54.183Z,82.67
2022-10-13T22:15:20.769Z,82.57
2022-10-13T22:17:47.586Z,82.80
2022-10-13T22:20:14.292Z,82.99
2022-10-13T22:22:40.973Z,82.88
2022-10-13T22:25:08.373Z,82.81
2022-10-13T22:27:35.684Z,82.90
2022-10-13T22:30:02.409Z,82.81
2022-10-13T22:32:29.129Z,82.69
2022-10-13T22:34:55.716Z,82.91
2022-10-13T22:37:23.057Z,82.72
2022-10-13T22:39:49.904Z,82.88
2022-10-13T22:42:16.762Z,82.73
2022-10-13T22:44:43.415Z,82.78
2022-10-13T22:47:10.051Z,82.60
2022-10-13T22:49:36.690Z,82.76
2022-10-13T22:52:03.901Z,82.58
2022-10-13T22:54:30.599Z,82.52
2022-10-13T22:56:57.244Z,82.75
2022-10-13T22:59:23.879Z,82.44
2022-10-13T23:01:50.515Z,82.54
2022-10-13T23:04:17.165Z,82.53
2022-10-13T23:06:43.822Z,82.23
2022-10-13T23:09:12.734Z,82.16
2022-10-13T23:11:39.767Z,81.97
2022-10-13T23:14:08.133Z,81.97
2022-10-13T23:16:34.765Z,82.07
2022-10-13T23:19:01.592Z,81.87
2022-10-13T23:21:29.755Z,82.05
2022-10-13T23:23:57.024Z,82.10
2022-10-13T23:26:24.074Z,82.46
2022-10-13T23:28:51.183Z,82.73
2022-10-13T23:31:18.398Z,82.51
2022-10-13T23:33:45.069Z,82.46
2022-10-13T23:36:30.990Z,82.61
2022-10-13T23:38:59.587Z,82.44
2022-10-13T23:41:26.750Z,82.55
2022-10-13T23:43:54.115Z,82.33
2022-10-13T23:46:20.944Z,82.53
2022-10-13T23:48:47.750Z,82.35
2022-10-13T23:51:17.108Z,82.28
2022-10-13T23:53:44.099Z,82.30
2022-10-13T23:56:11.757Z,82.32
2022-10-13T23:58:42.766Z,82.03
